Time;durP1;ratioP1;P1;durP2;ratioP2;P2;SDS_P1;SDS_P2;PMS_P1;PMS_P2;Temp;Humidity;BMP_temperature;BMP_pressure;BME280_temperature;BME280_humidity;BME280_pressure;Samples;Min_cycle;Max_cycle;Signal;HPM_P1;HPM_P2
2022/05/15 03:01:20;;;;;;;7.53;6.83;;;9.20;99.90;;;;;;5503976;23;20231;-76
2022/05/15 03:03:47;;;;;;;7.87;7.33;;;9.10;99.90;;;;;;4972651;28;20182;-76
2022/05/15 03:06:14;;;;;;;25.23;23.33;;;9.10;99.90;;;;;;4972359;28;20181;-76
2022/05/15 03:08:42;;;;;;;6.80;6.27;;;9.10;99.90;;;;;;4972548;28;20220;-77
2022/05/15 03:11:08;;;;;;;6.20;5.90;;;9.00;99.90;;;;;;4978219;28;20211;-75
2022/05/15 03:13:35;;;;;;;7.03;6.47;;;9.00;99.90;;;;;;5009101;28;20209;-75
2022/05/15 03:16:02;;;;;;;7.10;6.67;;;8.90;99.90;;;;;;4992583;23;20316;-77
2022/05/15 03:18:28;;;;;;;6.77;6.30;;;8.90;99.90;;;;;;4973263;28;20283;-77
2022/05/15 03:20:54;;;;;;;7.20;6.70;;;8.90;99.90;;;;;;4974716;28;20271;-78
2022/05/15 03:23:19;;;;;;;9.20;7.60;;;8.90;99.90;;;;;;4974314;28;20196;-78
2022/05/15 03:25:45;;;;;;;7.80;7.30;;;8.90;99.90;;;;;;4966506;28;20201;-78
2022/05/15 03:28:11;;;;;;;7.93;7.20;;;8.90;99.90;;;;;;4952965;29;20181;-77
2022/05/15 03:30:38;;;;;;;6.90;6.40;;;8.80;99.90;;;;;;4955905;29;20180;-78
2022/05/15 03:33:05;;;;;;;7.83;7.43;;;8.90;99.90;;;;;;4956995;29;20214;-77
2022/05/15 03:35:30;;;;;;;8.43;7.17;;;8.80;99.90;;;;;;4960531;28;20205;-77
2022/05/15 03:37:56;;;;;;;7.70;7.30;;;8.80;99.90;;;;;;4959121;29;20610;-78
2022/05/15 03:40:22;;;;;;;7.60;6.97;;;8.80;99.90;;;;;;4959748;28;20248;-77
2022/05/15 03:42:48;;;;;;;7.17;6.60;;;8.70;99.90;;;;;;4957727;29;20189;-78
2022/05/15 03:45:14;;;;;;;7.33;6.83;;;8.70;99.90;;;;;;4955237;28;20685;-78
2022/05/15 03:47:51;;;;;;;7.30;6.80;;;8.70;99.90;;;;;;4954389;29;20185;-78
2022/05/15 03:50:19;;;;;;;7.63;6.87;;;8.80;99.90;;;;;;4953774;29;20221;-78
2022/05/15 03:52:44;;;;;;;7.53;6.93;;;8.80;99.90;;;;;;4955489;29;20215;-78
2022/05/15 03:55:11;;;;;;;9.37;8.57;;;8.80;99.90;;;;;;4956294;28;20181;-78
2022/05/15 03:57:38;;;;;;;7.33;6.93;;;8.80;99.90;;;;;;4954499;29;20213;-78
2022/05/15 04:00:10;;;;;;;7.93;7.23;;;8.80;99.90;;;;;;4954774;29;20196;-78
2022/05/15 04:02:38;;;;;;;7.80;7.10;;;8.80;99.90;;;;;;4952761;29;20209;-79
2022/05/15 04:05:09;;;;;;;9.17;8.50;;;8.90;99.90;;;;;;4954346;28;20233;-78
2022/05/15 04:07:45;;;;;;;11.43;10.83;;;8.90;99.90;;;;;;4954042;29;20657;-77
2022/05/15 04:10:12;;;;;;;10.97;9.97;;;8.90;99.90;;;;;;4953560;29;20656;-78
2022/05/15 04:12:38;;;;;;;10.17;9.57;;;8.90;99.90;;;;;;4955536;29;20188;-77
2022/05/15 04:15:05;;;;;;;11.67;10.67;;;8.90;99.90;;;;;;4954074;28;20217;-78
2022/05/15 04:17:30;;;;;;;10.07;9.47;;;9.10;99.90;;;;;;4956894;28;20656;-77
2022/05/15 04:20:00;;;;;;;10.67;9.97;;;9.10;99.90;;;;;;4959725;29;20217;-79
2022/05/15 04:22:26;;;;;;;7.13;6.67;;;9.20;99.90;;;;;;4958634;29;20182;-77
2022/05/15 04:24:51;;;;;;;7.83;7.13;;;9.30;99.90;;;;;;4958825;28;20181;-77
2022/05/15 04:27:17;;;;;;;8.50;7.83;;;9.30;99.90;;;;;;4957563;29;20648;-77
2022/05/15 04:29:43;;;;;;;8.07;7.40;;;9.30;99.90;;;;;;4954826;29;20337;-78
2022/05/15 04:32:10;;;;;;;8.03;7.53;;;9.40;99.90;;;;;;4953408;29;20287;-77
2022/05/15 04:34:35;;;;;;;6.80;6.20;;;9.50;99.90;;;;;;4954705;29;20674;-78
2022/05/15 04:37:01;;;;;;;7.00;6.40;;;9.60;99.90;;;;;;4952549;28;20220;-79
2022/05/15 04:39:27;;;;;;;7.50;6.97;;;9.70;99.90;;;;;;4954068;29;20232;-78
2022/05/15 04:41:52;;;;;;;7.63;6.83;;;9.70;99.90;;;;;;4960941;29;20185;-77
2022/05/15 04:44:18;;;;;;;6.30;5.80;;;9.80;99.90;;;;;;4960259;29;20193;-77
2022/05/15 04:46:44;;;;;;;6.67;6.07;;;10.00;99.90;;;;;;4957008;28;20218;-77
2022/05/15 04:49:10;;;;;;;8.33;7.63;;;10.10;99.90;;;;;;4958340;29;20221;-77
2022/05/15 04:51:36;;;;;;;19.83;18.70;;;10.20;99.90;;;;;;4955675;28;20185;-78
2022/05/15 04:54:01;;;;;;;22.27;20.83;;;10.40;99.90;;;;;;4958738;29;20653;-78
2022/05/15 04:56:27;;;;;;;13.00;12.20;;;10.50;99.90;;;;;;4957722;28;20217;-78
2022/05/15 04:58:53;;;;;;;9.10;8.40;;;10.60;99.90;;;;;;4962474;29;20612;-76
2022/05/15 05:01:18;;;;;;;26.37;25.03;;;10.90;99.90;;;;;;4964618;29;20253;-78
2022/05/15 05:03:44;;;;;;;16.97;15.97;;;11.20;99.90;;;;;;4957142;29;20408;-77
2022/05/15 05:06:11;;;;;;;50.60;48.00;;;11.50;99.90;;;;;;4958075;28;20236;-77
2022/05/15 05:08:37;;;;;;;24.03;22.37;;;11.90;99.90;;;;;;4957643;28;20193;-78
2022/05/15 05:11:03;;;;;;;10.33;9.17;;;12.40;99.90;;;;;;4958458;29;20190;-77
2022/05/15 05:13:29;;;;;;;12.00;11.23;;;12.90;99.90;;;;;;4958369;29;20196;-77
2022/05/15 05:15:55;;;;;;;11.27;10.23;;;13.50;99.90;;;;;;4959934;28;20221;-77
2022/05/15 05:18:20;;;;;;;6.57;6.20;;;14.00;99.90;;;;;;4958408;29;20855;-78
2022/05/15 05:20:47;;;;;;;6.97;6.47;;;14.50;99.90;;;;;;4957177;29;20189;-77
2022/05/15 05:23:13;;;;;;;6.03;5.63;;;14.90;99.90;;;;;;4956895;29;20188;-77
2022/05/15 05:25:39;;;;;;;7.13;6.63;;;15.30;99.90;;;;;;4955330;28;20233;-76
2022/05/15 05:28:05;;;;;;;9.97;7.00;;;15.70;99.90;;;;;;4956292;29;20716;-76
2022/05/15 05:30:31;;;;;;;6.60;6.20;;;15.90;99.90;;;;;;4955763;29;20276;-77
2022/05/15 05:32:57;;;;;;;5.73;5.43;;;16.30;99.90;;;;;;4957630;29;20558;-78
2022/05/15 05:35:26;;;;;;;7.43;6.90;;;16.30;99.90;;;;;;4959006;28;20277;-79
2022/05/15 05:37:53;;;;;;;12.07;11.33;;;16.70;99.90;;;;;;4959348;29;20267;-79
2022/05/15 05:40:20;;;;;;;13.57;12.70;;;16.90;99.90;;;;;;4959110;29;20189;-79
2022/05/15 05:42:46;;;;;;;12.20;11.40;;;17.10;99.90;;;;;;4957702;29;20181;-79
2022/05/15 05:45:12;;;;;;;7.87;7.37;;;17.40;99.90;;;;;;4957144;28;20205;-79
2022/05/15 05:47:38;;;;;;;8.13;7.50;;;17.80;99.90;;;;;;4956348;29;20677;-76
2022/05/15 05:50:10;;;;;;;11.23;10.63;;;17.80;99.90;;;;;;4956894;29;20212;-76
2022/05/15 05:52:39;;;;;;;10.90;10.27;;;18.30;99.90;;;;;;4955705;28;20332;-78
2022/05/15 05:55:07;;;;;;;7.80;5.68;;;18.80;99.90;;;;;;4959565;28;20186;-75
2022/05/15 05:57:33;;;;;;;5.80;5.40;;;19.00;99.90;;;;;;4958317;29;20243;-75
2022/05/15 05:59:58;;;;;;;5.68;5.28;;;19.50;99.90;;;;;;4955367;29;20637;-76
2022/05/15 06:02:25;;;;;;;4.82;4.40;;;19.60;99.90;;;;;;4952016;29;20213;-70
2022/05/15 06:04:51;;;;;;;4.72;4.43;;;19.90;99.90;;;;;;4953585;28;20630;-71
2022/05/15 06:07:25;;;;;;;4.80;4.50;;;19.90;99.90;;;;;;4953758;28;20677;-72
2022/05/15 06:09:51;;;;;;;4.78;4.47;;;20.10;99.90;;;;;;4954390;29;20625;-75
2022/05/15 06:12:20;;;;;;;6.03;5.45;;;20.20;99.90;;;;;;4954454;28;20217;-75
2022/05/15 06:14:46;;;;;;;5.40;5.03;;;20.20;99.90;;;;;;4955447;29;20732;-74
2022/05/15 06:17:11;;;;;;;6.82;6.38;;;20.30;99.90;;;;;;4945039;28;20214;-73
2022/05/15 06:19:38;;;;;;;6.57;6.00;;;20.40;99.90;;;;;;4935581;29;20190;-72
2022/05/15 06:22:04;;;;;;;6.25;5.75;;;20.30;99.90;;;;;;4935367;29;20187;-74
2022/05/15 06:24:31;;;;;;;5.30;4.90;;;20.30;99.90;;;;;;4948177;29;20181;-72
2022/05/15 06:27:02;;;;;;;7.57;4.72;;;20.60;98.80;;;;;;4954732;28;20205;-73
2022/05/15 06:29:29;;;;;;;5.95;5.20;;;20.60;98.50;;;;;;4954745;28;20205;-73
2022/05/15 06:31:55;;;;;;;8.20;5.28;;;20.80;98.90;;;;;;4954013;29;20190;-73
2022/05/15 06:34:21;;;;;;;5.75;5.43;;;21.00;98.70;;;;;;4953322;29;20252;-73
2022/05/15 06:36:47;;;;;;;6.13;5.72;;;21.20;98.50;;;;;;4953935;28;20206;-76
2022/05/15 06:39:13;;;;;;;6.30;5.55;;;21.20;98.50;;;;;;4954152;29;20213;-75
2022/05/15 06:41:39;;;;;;;6.57;6.07;;;21.30;98.00;;;;;;4953732;29;20178;-75
2022/05/15 06:44:06;;;;;;;8.52;5.78;;;21.70;97.80;;;;;;4953384;29;20265;-73
2022/05/15 06:46:31;;;;;;;6.93;6.35;;;22.10;97.40;;;;;;4953950;28;20201;-75
2022/05/15 06:48:57;;;;;;;6.15;5.53;;;22.40;97.50;;;;;;4953013;29;20192;-76
2022/05/15 06:51:23;;;;;;;6.80;5.07;;;22.60;95.50;;;;;;4953872;29;20185;-71
2022/05/15 06:53:49;;;;;;;7.25;6.70;;;22.90;94.30;;;;;;4954074;29;20544;-71
2022/05/15 06:59:04;;;;;;;14.52;13.35;;;23.30;93.00;;;;;;4953090;29;20185;-71
2022/05/15 07:01:31;;;;;;;9.63;8.88;;;23.60;92.00;;;;;;4953745;28;20184;-73
2022/05/15 07:03:57;;;;;;;8.07;7.57;;;23.80;90.60;;;;;;4952967;29;20186;-72
2022/05/15 07:06:23;;;;;;;8.77;8.15;;;23.80;91.20;;;;;;4953785;28;20348;-71
2022/05/15 07:08:49;;;;;;;11.02;10.23;;;23.40;91.20;;;;;;4956228;29;20241;-71
2022/05/15 07:11:15;;;;;;;11.52;10.93;;;23.80;90.70;;;;;;4958337;29;20189;-72
2022/05/15 07:13:41;;;;;;;10.05;9.13;;;24.10;90.00;;;;;;4954908;29;20186;-72
2022/05/15 07:16:08;;;;;;;7.97;7.57;;;24.40;88.90;;;;;;4950716;28;20831;-71
2022/05/15 07:18:36;;;;;;;6.32;5.85;;;24.60;86.60;;;;;;4952416;29;20261;-71
2022/05/15 07:21:02;;;;;;;7.20;6.57;;;24.50;86.00;;;;;;4953852;29;20178;-72
2022/05/15 07:23:28;;;;;;;7.97;7.10;;;24.30;87.10;;;;;;4953268;29;20177;-72
2022/05/15 07:25:55;;;;;;;7.95;7.50;;;24.30;85.90;;;;;;4951738;28;20205;-72
2022/05/15 07:28:21;;;;;;;6.70;6.13;;;24.50;87.20;;;;;;4951851;29;20233;-73
2022/05/15 07:30:49;;;;;;;4.35;4.03;;;24.90;85.60;;;;;;4953022;29;20205;-72
2022/05/15 07:33:21;;;;;;;7.25;6.60;;;25.20;82.80;;;;;;4952710;29;20201;-72
2022/05/15 07:35:48;;;;;;;7.05;6.30;;;25.40;79.50;;;;;;4954084;28;20197;-72
2022/05/15 07:38:14;;;;;;;23.45;7.97;;;25.40;79.60;;;;;;4952381;29;20259;-72
2022/05/15 07:40:40;;;;;;;7.47;6.57;;;25.80;78.30;;;;;;4953194;29;20240;-72
2022/05/15 07:43:07;;;;;;;7.80;7.18;;;25.90;75.90;;;;;;4951950;29;20178;-72
2022/05/15 07:45:34;;;;;;;6.97;6.43;;;25.50;78.50;;;;;;4952872;28;20665;-72
2022/05/15 07:48:00;;;;;;;8.43;6.47;;;25.80;77.50;;;;;;4953384;29;20690;-73
2022/05/15 07:50:25;;;;;;;8.38;7.63;;;26.20;77.30;;;;;;4951693;29;20240;-72
2022/05/15 07:52:51;;;;;;;7.60;6.90;;;26.30;74.90;;;;;;4953150;29;20185;-73
2022/05/15 07:55:18;;;;;;;8.13;7.57;;;26.50;74.40;;;;;;4952274;28;20288;-71
2022/05/15 07:57:43;;;;;;;4.97;4.72;;;26.70;73.90;;;;;;4952593;29;20259;-71
2022/05/15 08:00:13;;;;;;;7.72;6.97;;;26.80;70.80;;;;;;4952405;29;20556;-71
2022/05/15 08:02:41;;;;;;;5.93;5.43;;;26.40;71.20;;;;;;4952759;28;20727;-70
2022/05/15 08:08:02;;;;;;;6.95;4.35;;;26.90;73.10;;;;;;4952149;29;20189;-73
2022/05/15 08:10:36;;;;;;;4.68;4.28;;;27.10;68.80;;;;;;4946923;29;20186;-73
2022/05/15 08:13:04;;;;;;;5.20;4.03;;;27.20;71.20;;;;;;4936785;29;20248;-74
2022/05/15 08:15:30;;;;;;;5.20;4.90;;;27.60;68.40;;;;;;4951416;28;20301;-73
2022/05/15 08:23:33;;;;;;;7.47;4.75;;;27.80;64.80;;;;;;4951245;29;20590;-74
2022/05/15 08:23:33;;;;;;;5.45;4.97;;;27.60;65.20;;;;;;4953317;28;20197;-72
2022/05/15 08:25:59;;;;;;;4.20;3.90;;;27.40;64.10;;;;;;4953101;28;20635;-75
2022/05/15 08:28:25;;;;;;;4.63;4.20;;;27.10;63.20;;;;;;4951942;29;20217;-73
2022/05/15 08:30:51;;;;;;;4.13;3.83;;;27.20;64.00;;;;;;4953259;28;20527;-74
2022/05/15 08:33:17;;;;;;;5.03;4.57;;;27.30;63.70;;;;;;4952956;29;20185;-74
2022/05/15 08:35:42;;;;;;;5.15;4.75;;;27.40;63.20;;;;;;4951795;28;20201;-74
2022/05/15 08:38:08;;;;;;;5.28;4.97;;;27.60;63.50;;;;;;4952609;29;20601;-74
2022/05/15 08:40:49;;;;;;;4.90;4.30;;;27.90;61.80;;;;;;4952697;29;20716;-73
2022/05/15 08:43:18;;;;;;;4.60;4.03;;;28.00;61.20;;;;;;4952776;29;20724;-73
2022/05/15 08:45:56;;;;;;;6.88;3.95;;;28.00;61.70;;;;;;4952688;28;20205;-72
2022/05/15 08:48:22;;;;;;;7.03;4.22;;;28.30;60.20;;;;;;4951386;29;20177;-72
2022/05/15 08:50:49;;;;;;;4.15;3.75;;;28.10;56.30;;;;;;4953342;29;20189;-74
2022/05/15 08:53:30;;;;;;;3.95;3.60;;;27.80;58.40;;;;;;4952930;29;20185;-75
2022/05/15 08:55:59;;;;;;;5.80;4.22;;;27.70;58.90;;;;;;4951212;28;20217;-72
2022/05/15 08:58:47;;;;;;;4.32;3.97;;;28.10;58.80;;;;;;4952169;29;20185;-74
2022/05/15 09:01:18;;;;;;;4.13;3.83;;;28.10;55.10;;;;;;4952694;29;20264;-74
2022/05/15 09:03:43;;;;;;;4.72;4.32;;;27.80;55.60;;;;;;4952679;29;20226;-74
2022/05/15 09:06:50;;;;;;;4.50;4.10;;;27.70;55.70;;;;;;4952933;28;20229;-75
2022/05/15 09:09:45;;;;;;;4.15;3.80;;;27.50;56.60;;;;;;4952391;29;20192;-74
2022/05/15 09:12:23;;;;;;;3.95;3.67;;;28.10;56.20;;;;;;4952667;28;20185;-74
2022/05/15 09:15:06;;;;;;;4.10;3.75;;;28.40;54.20;;;;;;4952520;29;20597;-72
2022/05/15 09:18:00;;;;;;;4.60;4.18;;;28.40;54.90;;;;;;5003484;23;20235;-72
2022/05/15 09:20:35;;;;;;;5.47;5.18;;;28.60;54.60;;;;;;5007826;28;20180;-73
2022/05/15 09:23:34;;;;;;;9.63;8.98;;;29.00;54.90;;;;;;4992066;28;20527;-72
2022/05/15 09:26:08;;;;;;;7.50;7.00;;;28.70;53.20;;;;;;4969661;28;20213;-73
2022/05/15 09:28:51;;;;;;;6.60;5.68;;;28.80;53.10;;;;;;4989302;28;20200;-73
2022/05/15 09:31:26;;;;;;;8.07;6.60;;;28.60;53.20;;;;;;5008305;28;20592;-73
2022/05/15 09:33:59;;;;;;;9.95;9.43;;;28.90;52.90;;;;;;4992761;28;20565;-73
2022/05/15 09:36:33;;;;;;;9.50;8.73;;;29.10;52.20;;;;;;4992117;28;20274;-72
2022/05/15 09:39:18;;;;;;;10.68;10.02;;;29.30;51.50;;;;;;4992516;28;20682;-73
2022/05/15 09:44:41;;;;;;;6.90;6.43;;;29.20;52.80;;;;;;4995903;28;20326;-73
2022/05/15 09:47:19;;;;;;;6.47;5.97;;;29.50;50.90;;;;;;4995677;28;20223;-73
2022/05/15 09:49:45;;;;;;;6.50;5.88;;;29.60;50.50;;;;;;4995511;28;20195;-73
2022/05/15 09:52:35;;;;;;;8.32;7.93;;;29.80;50.40;;;;;;5010841;28;20181;-75
2022/05/15 09:55:21;;;;;;;6.93;6.43;;;29.60;50.90;;;;;;4995876;28;20661;-75
2022/05/15 09:58:00;;;;;;;6.43;5.45;;;29.70;51.60;;;;;;5010641;28;20212;-73
2022/05/15 10:00:29;;;;;;;4.85;4.53;;;30.00;51.20;;;;;;5012925;28;20184;-75
2022/05/15 10:03:03;;;;;;;5.22;4.82;;;30.20;50.90;;;;;;5013490;28;20842;-74
2022/05/15 10:05:32;;;;;;;7.38;6.97;;;30.60;50.40;;;;;;4978065;28;20328;-72
2022/05/15 10:08:10;;;;;;;7.15;6.57;;;30.80;49.20;;;;;;4991324;28;20189;-74
2022/05/15 10:10:52;;;;;;;9.75;9.15;;;31.20;47.60;;;;;;4992527;28;20185;-74
2022/05/15 10:13:25;;;;;;;9.50;8.70;;;30.70;49.70;;;;;;4976999;28;20192;-74
2022/05/15 10:15:56;;;;;;;9.02;8.50;;;30.40;48.70;;;;;;4991761;28;20719;-74
2022/05/15 10:18:29;;;;;;;11.73;10.75;;;30.60;47.40;;;;;;4990785;28;20304;-74
2022/05/15 10:20:55;;;;;;;10.73;10.00;;;31.10;48.00;;;;;;4990368;28;20216;-74
2022/05/15 10:23:27;;;;;;;6.53;5.93;;;31.50;47.00;;;;;;4995284;28;20180;-73
2022/05/15 10:26:00;;;;;;;9.27;8.68;;;31.30;45.20;;;;;;4995289;28;20796;-73
2022/05/15 10:28:53;;;;;;;9.57;8.75;;;30.70;46.20;;;;;;4995107;28;20211;-73
2022/05/15 10:31:31;;;;;;;9.18;8.57;;;30.80;45.40;;;;;;4995314;28;20268;-73
2022/05/15 10:34:23;;;;;;;5.45;5.15;;;31.10;45.40;;;;;;4995328;28;20180;-73
2022/05/15 10:37:20;;;;;;;8.02;7.10;;;31.30;44.60;;;;;;4994309;28;20215;-73
2022/05/15 10:39:49;;;;;;;9.35;7.85;;;30.60;45.40;;;;;;4995253;28;20193;-73
2022/05/15 10:42:39;;;;;;;8.75;8.02;;;31.00;45.30;;;;;;5010482;28;20219;-73
2022/05/15 10:45:31;;;;;;;4.72;4.43;;;30.90;45.60;;;;;;5011013;28;20211;-73
2022/05/15 10:48:08;;;;;;;3.80;3.50;;;31.40;43.30;;;;;;5003118;28;20185;-73
2022/05/15 10:51:02;;;;;;;4.30;3.65;;;31.60;43.30;;;;;;4978162;28;20260;-73
2022/05/15 10:59:40;;;;;;;4.72;4.32;;;32.60;42.00;;;;;;4984192;28;20200;-73
2022/05/15 11:02:43;;;;;;;3.70;3.40;;;33.10;42.00;;;;;;4990568;28;20200;-74
2022/05/15 11:05:14;;;;;;;4.55;4.25;;;33.00;41.80;;;;;;4995716;28;20182;-74
2022/05/15 11:08:03;;;;;;;4.85;4.45;;;33.10;40.90;;;;;;4994377;28;20207;-76
2022/05/15 11:10:36;;;;;;;4.88;4.47;;;33.10;42.70;;;;;;4989577;28;20196;-75
2022/05/15 11:13:19;;;;;;;4.70;3.50;;;33.80;40.80;;;;;;4994984;28;20189;-74
2022/05/15 11:15:54;;;;;;;6.90;3.60;;;33.90;39.80;;;;;;4999434;28;20208;-74
2022/05/15 11:18:41;;;;;;;4.53;3.90;;;33.90;40.70;;;;;;4973993;28;20743;-74
2022/05/15 11:21:16;;;;;;;3.95;3.65;;;34.30;39.90;;;;;;4975356;28;20192;-74
2022/05/15 11:24:06;;;;;;;4.50;4.20;;;33.90;40.30;;;;;;4976325;28;20212;-75
2022/05/15 11:26:44;;;;;;;4.88;4.45;;;33.50;40.70;;;;;;4981453;28;20209;-75
2022/05/15 11:29:14;;;;;;;4.05;3.88;;;32.90;41.30;;;;;;4982353;28;20207;-74
2022/05/15 11:31:45;;;;;;;5.57;5.18;;;32.30;41.70;;;;;;4994737;28;20660;-74
2022/05/15 11:34:11;;;;;;;5.90;5.50;;;32.90;41.60;;;;;;4994884;28;20180;-74
2022/05/15 11:36:46;;;;;;;4.95;3.95;;;33.10;41.20;;;;;;4994107;28;20649;-75
2022/05/15 11:39:15;;;;;;;7.45;3.30;;;33.80;41.10;;;;;;4994214;28;20744;-74
2022/05/15 11:41:43;;;;;;;5.05;4.75;;;34.60;38.60;;;;;;4992610;28;20623;-75
2022/05/15 11:44:18;;;;;;;4.35;4.07;;;33.50;38.60;;;;;;4991719;28;20181;-78
2022/05/15 11:46:47;;;;;;;5.78;5.28;;;33.50;42.40;;;;;;4993740;28;20208;-75
2022/05/15 11:49:17;;;;;;;79.82;32.17;;;34.00;42.20;;;;;;5008637;28;20184;-76
2022/05/15 11:51:56;;;;;;;270.92;112.20;;;34.60;38.80;;;;;;4994590;28;20188;-76
2022/05/15 11:54:31;;;;;;;16.33;7.00;;;34.30;37.60;;;;;;4992870;28;20271;-75
2022/05/15 11:56:57;;;;;;;9.43;5.85;;;34.40;40.00;;;;;;4992512;28;20242;-76
2022/05/15 11:59:38;;;;;;;33.83;18.13;;;34.90;38.40;;;;;;4993353;28;20176;-76
2022/05/15 12:02:21;;;;;;;59.78;20.05;;;35.10;38.50;;;;;;4991559;28;20735;-76
2022/05/15 12:04:54;;;;;;;14.25;8.73;;;35.50;38.10;;;;;;4990033;28;20287;-76
2022/05/15 12:07:57;;;;;;;35.70;9.70;;;35.40;37.20;;;;;;4971223;28;20267;-77
2022/05/15 12:10:35;;;;;;;6.75;5.65;;;36.00;38.00;;;;;;4975271;28;20177;-76
2022/05/15 12:13:08;;;;;;;7.22;6.13;;;35.60;38.30;;;;;;4990448;28;20188;-75
2022/05/15 12:15:37;;;;;;;4.85;4.47;;;36.00;37.40;;;;;;4991913;28;20255;-75
2022/05/15 12:18:27;;;;;;;4.15;3.88;;;36.40;35.80;;;;;;4992020;28;20684;-72
2022/05/15 12:20:53;;;;;;;4.82;4.10;;;36.40;35.30;;;;;;4991431;28;20180;-73
2022/05/15 12:23:30;;;;;;;4.30;3.95;;;35.80;36.00;;;;;;4987874;28;20176;-75
2022/05/15 12:26:01;;;;;;;4.45;4.05;;;35.10;35.80;;;;;;4988498;28;20208;-74
2022/05/15 12:31:16;;;;;;;4.03;3.15;;;36.10;35.70;;;;;;4988612;28;20188;-74
2022/05/15 12:33:44;;;;;;;5.97;5.43;;;36.30;36.60;;;;;;4996795;28;20195;-74
2022/05/15 12:36:32;;;;;;;5.15;4.82;;;36.80;34.90;;;;;;4995051;28;20287;-75
2022/05/15 12:38:59;;;;;;;5.22;4.78;;;37.40;34.00;;;;;;4992295;28;20180;-74
2022/05/15 12:41:32;;;;;;;6.38;5.88;;;36.60;33.50;;;;;;4989351;28;20180;-73
2022/05/15 12:44:01;;;;;;;5.70;5.28;;;35.60;35.10;;;;;;4991547;28;20574;-73
2022/05/15 12:46:51;;;;;;;8.68;8.10;;;35.90;34.70;;;;;;4991687;28;20211;-74
2022/05/15 12:49:30;;;;;;;7.55;6.85;;;35.80;34.60;;;;;;4990903;28;20275;-74
2022/05/15 12:52:12;;;;;;;6.18;5.88;;;35.40;34.40;;;;;;4991084;28;20180;-74
2022/05/15 12:54:39;;;;;;;8.07;7.53;;;35.70;34.40;;;;;;4992031;28;20192;-74
2022/05/15 12:57:09;;;;;;;7.47;4.70;;;35.90;33.30;;;;;;4989642;28;20251;-74
2022/05/15 12:59:39;;;;;;;4.15;3.80;;;35.00;34.00;;;;;;4990920;28;20184;-74
2022/05/15 13:02:23;;;;;;;6.60;6.30;;;35.20;34.30;;;;;;4990707;28;20188;-74
2022/05/15 13:04:53;;;;;;;13.38;12.50;;;35.80;33.10;;;;;;4990654;28;20640;-74
2022/05/15 13:07:28;;;;;;;7.85;6.97;;;36.20;32.40;;;;;;4991147;28;20246;-74
2022/05/15 13:10:10;;;;;;;6.93;6.60;;;35.90;33.70;;;;;;5005066;28;20253;-74
2022/05/15 13:12:49;;;;;;;5.45;4.90;;;36.40;32.20;;;;;;4999128;28;20663;-74
2022/05/15 13:15:21;;;;;;;5.00;4.70;;;37.20;31.20;;;;;;5014854;28;20187;-74
2022/05/15 13:17:48;;;;;;;4.65;4.25;;;36.60;32.80;;;;;;5011352;28;20308;-74
2022/05/15 13:20:17;;;;;;;4.45;4.00;;;36.40;32.40;;;;;;4995871;28;20876;-74
2022/05/15 13:22:43;;;;;;;4.40;4.10;;;36.70;31.00;;;;;;4989357;28;20558;-74
2022/05/15 13:25:33;;;;;;;5.97;5.68;;;36.60;30.60;;;;;;4982636;28;20173;-74
2022/05/15 13:28:00;;;;;;;3.97;3.65;;;36.30;32.70;;;;;;4975853;28;20196;-73
2022/05/15 13:30:29;;;;;;;3.95;3.75;;;37.30;31.10;;;;;;4986320;28;20184;-73
2022/05/15 13:33:02;;;;;;;3.97;3.58;;;36.80;31.20;;;;;;5026609;28;20192;-73
2022/05/15 13:35:44;;;;;;;3.92;3.72;;;36.90;31.30;;;;;;5015983;28;20645;-73
2022/05/15 13:38:16;;;;;;;5.07;4.10;;;36.40;32.30;;;;;;4995756;28;20216;-74
2022/05/15 13:43:38;;;;;;;4.72;4.53;;;36.10;32.40;;;;;;4995460;28;20263;-74
2022/05/15 13:46:09;;;;;;;6.97;4.38;;;36.20;32.60;;;;;;4994401;28;20200;-73
2022/05/15 13:48:54;;;;;;;5.15;4.32;;;36.00;31.60;;;;;;4995103;28;20562;-74
2022/05/15 13:51:40;;;;;;;3.17;2.90;;;36.40;31.90;;;;;;4982673;28;20193;-73
2022/05/15 13:54:29;;;;;;;7.78;7.35;;;36.80;31.30;;;;;;4987399;28;20192;-73
2022/05/15 13:56:55;;;;;;;9.55;8.98;;;37.60;30.00;;;;;;4994076;28;20598;-75
2022/05/15 14:00:05;;;;;;;18.05;16.92;;;37.90;30.10;;;;;;4993724;28;20176;-73
2022/05/15 14:02:54;;;;;;;71.20;67.57;;;38.00;30.20;;;;;;4993584;28;20271;-73
2022/05/15 14:05:20;;;;;;;39.17;37.22;;;38.00;29.40;;;;;;4992660;28;20211;-73
2022/05/15 14:07:46;;;;;;;53.67;51.10;;;37.10;31.10;;;;;;5005061;28;20299;-73
2022/05/15 14:10:14;;;;;;;10.85;10.35;;;38.00;29.50;;;;;;4997969;28;20279;-73
2022/05/15 14:13:01;;;;;;;6.13;5.63;;;37.20;30.40;;;;;;4994530;28;20231;-75
2022/05/15 14:15:54;;;;;;;4.20;3.88;;;36.90;30.90;;;;;;4995158;28;20183;-74
2022/05/15 14:18:20;;;;;;;6.50;6.03;;;36.50;30.70;;;;;;5008907;28;20219;-73
2022/05/15 14:20:49;;;;;;;12.98;12.27;;;36.80;30.20;;;;;;4994200;28;20203;-74
2022/05/15 14:23:18;;;;;;;22.10;20.52;;;38.00;29.60;;;;;;4994045;28;20180;-74
2022/05/15 14:25:45;;;;;;;37.63;35.67;;;37.40;30.30;;;;;;4993657;28;20173;-74
2022/05/15 14:28:13;;;;;;;41.38;39.33;;;37.70;29.60;;;;;;4993728;28;20184;-74
2022/05/15 14:30:42;;;;;;;69.22;65.43;;;38.00;30.40;;;;;;4994231;28;20208;-74
2022/05/15 14:33:08;;;;;;;74.57;70.88;;;38.40;29.30;;;;;;4993097;28;20188;-76
2022/05/15 14:35:42;;;;;;;56.05;52.92;;;38.60;29.10;;;;;;4992446;28;20191;-74
2022/05/15 14:38:08;;;;;;;43.00;40.88;;;38.60;28.90;;;;;;4993423;28;20908;-74
2022/05/15 14:40:34;;;;;;;59.75;56.85;;;38.30;29.60;;;;;;4994046;28;20183;-74
2022/05/15 14:43:00;;;;;;;68.40;65.00;;;38.40;29.70;;;;;;4994420;28;20593;-75
2022/05/15 14:45:27;;;;;;;51.50;49.03;;;37.90;29.90;;;;;;4993951;28;20525;-74
2022/05/15 14:47:59;;;;;;;58.50;55.55;;;38.50;29.00;;;;;;4992456;28;20188;-74
2022/05/15 14:50:26;;;;;;;60.65;57.60;;;38.00;29.90;;;;;;4992381;28;20192;-75
2022/05/15 14:52:54;;;;;;;38.72;36.75;;;37.80;29.90;;;;;;4993629;28;20654;-74
2022/05/15 14:56:07;;;;;;;25.13;23.63;;;38.60;28.50;;;;;;4992445;28;20191;-74
2022/05/15 14:58:13;;;;;;;34.22;32.45;;;38.90;28.40;;;;;;4993286;28;20212;-74
2022/05/15 15:00:39;;;;;;;55.60;52.67;;;38.60;28.60;;;;;;4993265;28;20653;-74
2022/05/15 15:03:05;;;;;;;60.75;57.80;;;38.00;29.30;;;;;;4992973;28;20185;-75
2022/05/15 15:05:44;;;;;;;54.67;52.00;;;37.60;29.20;;;;;;4993546;28;20191;-74
2022/05/15 15:08:20;;;;;;;63.60;60.45;;;37.20;29.70;;;;;;4993476;28;20334;-74
2022/05/15 15:10:48;;;;;;;58.20;55.28;;;37.70;29.50;;;;;;5003477;28;20184;-73
2022/05/15 15:13:15;;;;;;;59.25;56.42;;;37.60;29.60;;;;;;5002691;28;20211;-74
2022/05/15 15:15:43;;;;;;;77.63;73.57;;;37.40;29.80;;;;;;4999356;28;20643;-75
2022/05/15 15:18:09;;;;;;;71.82;68.32;;;37.20;29.50;;;;;;4975178;23;20324;-74
2022/05/15 15:20:37;;;;;;;56.40;53.65;;;36.90;30.30;;;;;;4953930;29;20273;-73
2022/05/15 15:23:04;;;;;;;39.75;37.78;;;38.10;29.30;;;;;;4955051;28;20209;-74
2022/05/15 15:25:29;;;;;;;56.20;52.63;;;38.40;28.80;;;;;;4954445;29;20212;-74
2022/05/15 15:27:55;;;;;;;56.08;53.25;;;38.20;29.10;;;;;;4944428;28;20234;-74
2022/05/15 15:30:21;;;;;;;47.33;44.85;;;37.40;29.20;;;;;;4934958;29;20201;-74
2022/05/15 15:32:47;;;;;;;48.65;46.05;;;37.00;29.90;;;;;;4934935;29;20659;-75
2022/05/15 15:35:13;;;;;;;59.35;56.42;;;37.00;29.70;;;;;;4933784;29;20277;-74
2022/05/15 15:40:25;;;;;;;47.50;45.00;;;37.10;29.30;;;;;;4953867;29;20178;-73
2022/05/15 15:42:50;;;;;;;47.50;45.03;;;37.00;29.20;;;;;;4953637;28;20673;-74
2022/05/15 15:45:16;;;;;;;62.90;59.88;;;36.90;29.60;;;;;;4948825;28;20183;-74
2022/05/15 15:47:42;;;;;;;54.20;51.33;;;37.50;29.20;;;;;;4933068;29;20285;-75
2022/05/15 15:50:08;;;;;;;53.65;51.00;;;37.20;29.70;;;;;;4933511;29;20666;-74
2022/05/15 15:52:34;;;;;;;35.38;33.58;;;37.30;29.40;;;;;;4934599;29;20623;-74
2022/05/15 15:55:01;;;;;;;18.50;17.67;;;37.00;29.60;;;;;;4936835;29;20191;-75
2022/05/15 15:57:27;;;;;;;27.52;26.10;;;36.70;29.70;;;;;;4936050;28;20202;-75
2022/05/15 15:59:53;;;;;;;37.05;35.17;;;36.10;30.40;;;;;;4934383;29;20229;-73
2022/05/15 16:02:18;;;;;;;51.00;48.47;;;36.60;30.30;;;;;;4934427;29;20174;-74
2022/05/15 16:04:44;;;;;;;60.65;57.72;;;36.90;29.70;;;;;;4934361;29;20543;-74
2022/05/15 16:07:10;;;;;;;42.88;40.33;;;36.20;30.60;;;;;;4943900;28;20208;-73
2022/05/15 16:09:37;;;;;;;13.80;13.00;;;36.30;30.40;;;;;;4953406;29;20276;-73
2022/05/15 16:12:06;;;;;;;3.90;3.55;;;35.90;31.10;;;;;;4952869;29;20272;-74
2022/05/15 16:14:38;;;;;;;8.95;8.52;;;34.90;32.30;;;;;;4954382;28;20201;-74
2022/05/15 16:17:05;;;;;;;8.80;8.27;;;34.60;32.80;;;;;;4949186;28;20273;-73
2022/05/15 16:19:32;;;;;;;7.45;7.03;;;34.70;32.00;;;;;;4933017;29;20221;-74
2022/05/15 16:21:59;;;;;;;10.90;10.07;;;34.60;32.10;;;;;;4934089;29;20185;-73
2022/05/15 16:24:37;;;;;;;7.45;7.00;;;34.90;32.10;;;;;;4934106;28;20179;-73
2022/05/15 16:27:09;;;;;;;10.73;10.13;;;35.00;31.30;;;;;;4936332;29;20253;-74
2022/05/15 16:29:39;;;;;;;10.00;7.80;;;34.60;31.80;;;;;;4934103;28;20190;-75